LFRG/DOL METAR and TAF weather

Enter ICAO airport designator
Station Type Date Time Source
LFRG METAR 2022/07/01 00:30 UTC NOAA

LFRG 010030Z AUTO 22006KT CAVOK 10/08 Q1017


Station Type Date Time Source
LFRG Decoded METAR 2022/07/01 00:30 UTC NOAA

Station name not available
Jun 30, 2022 - 08:30 PM EDT / 2022.07.01 0030 UTC
Wind: from the SW (220 degrees) at 7 MPH (6 KT):0
Visibility: greater than 7 mile(s):0
Temperature: 50 F (10 C)
Dew Point: 46 F (8 C)
Relative Humidity: 87%
Pressure (altimeter): 30.03 in. Hg (1017 hPa)
ob: LFRG 010030Z AUTO 22006KT CAVOK 10/08 Q1017
cycle: 0

Station Type Date Time Source
LFRG TAF 2014/12/22 18:42 UTC NOAA

TAF
AMD TAF
AMD LFRG 221837Z 2218/2221 25015KT 9999 OVC015
TEMPO 2218/2221 BKN007 PROB30
TEMPO 2218/2221 25015G25KT 4000 DZ BKN003

Example: see airport list